Time;durP1;ratioP1;P1;durP2;ratioP2;P2;SDS_P1;SDS_P2;PMS_P1;PMS_P2;Temp;Humidity;BMP_temperature;BMP_pressure;BME280_temperature;BME280_humidity;BME280_pressure;Samples;Min_cycle;Max_cycle;Signal;HPM_P1;HPM_P2
2022/01/16 00:08:01;;;;;;;97.60;36.58;;;;;;;1.43;100.00;101351.09;20561705;28;20111;-72
2022/01/16 00:28:04;;;;;;;91.28;33.15;;;;;;;1.26;100.00;101350.47;20866554;28;20053;-72
2022/01/16 00:38:06;;;;;;;82.95;30.92;;;;;;;1.24;100.00;101328.91;20865286;28;20053;-72
2022/01/16 00:48:08;;;;;;;84.82;31.27;;;;;;;1.18;100.00;101345.03;20864117;28;20096;-75
2022/01/16 00:58:09;;;;;;;84.82;29.98;;;;;;;1.08;100.00;101365.25;20863607;28;20050;-75
2022/01/16 01:08:11;;;;;;;70.32;25.98;;;;;;;0.98;100.00;101366.63;20862099;28;20478;-73
2022/01/16 01:18:13;;;;;;;73.45;25.10;;;;;;;0.88;100.00;101375.69;20863146;28;20553;-73
2022/01/16 01:28:15;;;;;;;65.82;24.33;;;;;;;0.81;100.00;101277.41;20858107;28;20182;-72
2022/01/16 01:38:18;;;;;;;66.88;24.02;;;;;;;0.81;100.00;101316.09;20860847;28;20103;-73
2022/01/16 01:58:40;;;;;;;65.75;23.48;;;;;;;0.71;100.00;101356.97;20856131;28;20079;-74
2022/01/16 02:08:43;;;;;;;72.75;22.92;;;;;;;0.71;100.00;101381.88;20859009;28;20059;-74
2022/01/16 02:29:44;;;;;;;58.50;21.40;;;;;;;0.39;100.00;101373.72;20856894;28;20057;-73
2022/01/16 02:39:34;;;;;;;63.27;21.67;;;;;;;0.40;100.00;101360.03;20854640;28;20057;-73
2022/01/16 02:49:35;;;;;;;62.30;20.98;;;;;;;0.38;100.00;101350.47;20856935;28;20045;-74
2022/01/16 02:59:38;;;;;;;56.25;21.25;;;;;;;0.16;100.00;101323.84;20856319;28;20045;-74
2022/01/16 03:30:05;;;;;;;65.75;22.25;;;;;;;0.02;100.00;101324.09;20869505;28;20065;-73
2022/01/16 03:40:10;;;;;;;63.50;22.98;;;;;;;-0.17;100.00;101332.75;20871135;28;20049;-73
2022/01/16 03:50:12;;;;;;;59.25;21.55;;;;;;;-0.19;100.00;101329.19;20870076;28;20049;-74
2022/01/16 04:00:14;;;;;;;64.95;23.02;;;;;;;-0.40;100.00;101331.75;20868263;28;20041;-75
2022/01/16 04:10:15;;;;;;;61.20;22.67;;;;;;;-0.14;100.00;101330.31;20863785;28;20059;-74
2022/01/16 04:20:17;;;;;;;56.60;22.23;;;;;;;-0.19;100.00;101334.34;20864677;28;20050;-73
2022/01/16 04:30:19;;;;;;;55.33;21.48;;;;;;;-0.30;100.00;101359.63;20866087;28;20111;-75
2022/01/16 04:40:22;;;;;;;61.13;23.40;;;;;;;-0.21;100.00;101330.84;20865086;28;20049;-73
2022/01/16 04:50:25;;;;;;;57.90;21.20;;;;;;;-0.19;100.00;101306.03;20864347;28;20495;-73
2022/01/16 05:00:27;;;;;;;55.63;22.10;;;;;;;-0.18;100.00;101319.00;20863153;28;20198;-75
2022/01/16 05:10:28;;;;;;;54.03;21.00;;;;;;;-0.28;100.00;101325.44;20863554;28;20136;-75
2022/01/16 05:20:30;;;;;;;49.08;18.50;;;;;;;-0.24;100.00;101341.00;20863347;28;20041;-74
2022/01/16 05:30:31;;;;;;;51.53;20.05;;;;;;;-0.33;100.00;101350.09;20861108;28;20468;-73
2022/01/16 05:40:33;;;;;;;59.28;22.08;;;;;;;-0.31;100.00;101333.03;20861370;28;20045;-74
2022/01/16 05:50:34;;;;;;;61.15;21.35;;;;;;;-0.35;100.00;101345.69;20860195;28;20399;-73
2022/01/16 06:00:38;;;;;;;61.95;21.75;;;;;;;-0.42;100.00;101349.69;20859697;28;20045;-73
2022/01/16 06:10:40;;;;;;;53.33;21.27;;;;;;;-0.53;100.00;101367.25;20859164;28;20045;-72
2022/01/16 06:20:42;;;;;;;63.08;22.38;;;;;;;-0.50;100.00;101381.91;20858592;28;20048;-73
2022/01/16 06:30:43;;;;;;;62.72;24.52;;;;;;;-0.46;100.00;101404.41;20856981;28;20049;-72
2022/01/16 06:40:44;;;;;;;56.80;22.20;;;;;;;-0.49;100.00;101405.94;20857014;28;20072;-71
2022/01/16 06:50:46;;;;;;;61.42;24.38;;;;;;;-0.29;100.00;101406.03;20871227;28;20061;-72
2022/01/16 07:00:48;;;;;;;59.83;23.50;;;;;;;-0.34;100.00;101409.19;20872185;28;20560;-72
2022/01/16 07:10:50;;;;;;;60.97;23.50;;;;;;;-0.30;100.00;101445.44;20872398;28;20049;-71
2022/01/16 07:20:52;;;;;;;70.55;26.65;;;;;;;-0.32;100.00;101470.22;20872146;28;20049;-72
2022/01/16 07:30:53;;;;;;;68.00;25.52;;;;;;;-0.34;100.00;101484.69;20869785;28;20041;-71
2022/01/16 07:40:54;;;;;;;77.15;27.45;;;;;;;-0.18;100.00;101480.25;20870319;28;20337;-71
2022/01/16 07:50:56;;;;;;;74.32;28.00;;;;;;;-0.27;100.00;101503.88;20869706;28;20056;-71
2022/01/16 08:00:57;;;;;;;71.80;27.58;;;;;;;-0.26;100.00;101516.81;20858935;28;20048;-71
2022/01/16 08:10:59;;;;;;;72.90;27.67;;;;;;;-0.11;100.00;101518.31;20846980;28;20049;-71
2022/01/16 08:21:01;;;;;;;73.53;28.25;;;;;;;0.07;100.00;101519.16;20830341;28;20391;-72
2022/01/16 08:31:03;;;;;;;81.57;30.23;;;;;;;0.06;100.00;101530.28;20830378;28;20091;-72
2022/01/16 08:41:04;;;;;;;80.63;30.27;;;;;;;0.01;100.00;101551.47;20829037;28;20041;-72
2022/01/16 08:51:06;;;;;;;82.05;31.15;;;;;;;0.23;100.00;101546.47;20826837;28;20053;-72
2022/01/16 09:01:08;;;;;;;88.95;32.65;;;;;;;0.31;100.00;101545.09;20834327;28;20041;-72
2022/01/16 09:11:10;;;;;;;84.60;31.55;;;;;;;0.21;100.00;101564.44;20851458;28;20048;-72
2022/01/16 09:21:11;;;;;;;80.28;30.10;;;;;;;0.46;100.00;101580.97;20854024;28;20384;-72
2022/01/16 09:31:13;;;;;;;79.28;30.50;;;;;;;0.45;100.00;101599.81;20852696;28;20049;-72
2022/01/16 09:41:14;;;;;;;79.88;28.85;;;;;;;0.34;100.00;101613.94;20853016;28;20045;-71
2022/01/16 09:51:16;;;;;;;76.85;29.85;;;;;;;0.46;100.00;101632.50;20855290;28;20060;-71
2022/01/16 10:01:22;;;;;;;82.57;30.23;;;;;;;0.83;100.00;101639.28;20850327;28;20076;-71
2022/01/16 10:11:33;;;;;;;125.18;33.40;;;;;;;0.96;100.00;101659.66;20852072;28;20048;-71
2022/01/16 10:21:38;;;;;;;76.30;28.80;;;;;;;0.84;100.00;101664.25;20847053;28;20061;-71
2022/01/16 10:31:40;;;;;;;73.13;28.73;;;;;;;0.74;100.00;101648.38;20844817;28;20057;-70
2022/01/16 10:41:42;;;;;;;75.45;28.98;;;;;;;1.05;100.00;101646.25;20847860;28;20510;-71
2022/01/16 10:52:05;;;;;;;78.35;28.73;;;;;;;1.17;100.00;101657.97;20847669;28;20103;-70
2022/01/16 11:02:08;;;;;;;77.25;29.40;;;;;;;1.14;100.00;101655.25;20845898;28;20560;-71
2022/01/16 11:12:10;;;;;;;76.38;30.13;;;;;;;1.47;100.00;101668.69;20848270;28;20045;-71
2022/01/16 11:22:20;;;;;;;80.55;33.35;;;;;;;1.60;100.00;101661.47;20847339;28;20468;-71
2022/01/16 11:32:21;;;;;;;79.32;31.40;;;;;;;1.64;100.00;101659.06;20849362;28;20516;-70
2022/01/16 11:42:34;;;;;;;72.05;30.70;;;;;;;1.84;100.00;101646.06;20861748;28;20497;-70
2022/01/16 11:52:41;;;;;;;71.43;29.77;;;;;;;1.85;100.00;101634.91;20859497;28;20501;-71
2022/01/16 12:02:48;;;;;;;76.40;30.17;;;;;;;1.87;100.00;101654.84;20860300;28;20203;-70
2022/01/16 12:12:50;;;;;;;75.10;30.55;;;;;;;1.90;100.00;101661.81;20859384;28;20072;-70
2022/01/16 12:23:08;;;;;;;75.47;30.67;;;;;;;1.72;100.00;101678.31;20862860;28;20036;-72
2022/01/16 12:33:26;;;;;;;74.32;30.83;;;;;;;2.01;99.37;101668.25;20856421;28;20409;-71
2022/01/16 12:43:33;;;;;;;73.65;29.50;;;;;;;2.03;99.92;101676.97;20856582;28;20056;-71
2022/01/16 12:53:47;;;;;;;79.55;31.40;;;;;;;2.05;99.42;101676.19;20852149;28;20136;-71
2022/01/16 13:03:49;;;;;;;68.25;29.25;;;;;;;2.01;99.71;101674.34;20853284;28;20512;-72
2022/01/16 13:13:51;;;;;;;73.70;29.48;;;;;;;1.97;100.00;101666.41;20852980;28;20057;-71
2022/01/16 13:23:52;;;;;;;75.13;29.02;;;;;;;2.01;100.00;101645.00;20854295;28;20041;-71
2022/01/16 13:34:08;;;;;;;73.10;29.27;;;;;;;2.05;100.00;101644.31;20846821;28;20046;-71
2022/01/16 13:44:28;;;;;;;78.72;32.25;;;;;;;2.02;100.00;101670.94;20850953;28;20472;-72
2022/01/16 13:54:31;;;;;;;78.88;33.13;;;;;;;2.00;100.00;101657.06;20852491;28;20053;-72
2022/01/16 14:04:39;;;;;;;77.20;31.67;;;;;;;2.02;100.00;101659.72;20839107;28;20333;-72
2022/01/16 14:14:41;;;;;;;74.97;31.05;;;;;;;2.06;100.00;101633.19;20684291;28;20812;-72
2022/01/16 14:24:49;;;;;;;76.15;32.90;;;;;;;1.99;100.00;101664.75;20686981;28;20073;-71
2022/01/16 14:34:55;;;;;;;73.47;33.53;;;;;;;1.88;100.00;101686.69;20725340;28;20092;-71
2022/01/16 14:44:57;;;;;;;76.78;32.45;;;;;;;1.86;100.00;101703.81;20768925;28;20091;-70
2022/01/16 14:54:59;;;;;;;70.80;29.98;;;;;;;1.91;100.00;101712.63;20767302;28;20049;-70
2022/01/16 15:05:01;;;;;;;75.70;31.48;;;;;;;1.95;100.00;101724.84;20769177;28;20534;-70
2022/01/16 15:15:08;;;;;;;67.57;28.88;;;;;;;1.92;100.00;101714.41;20782931;28;20080;-71
2022/01/16 15:25:11;;;;;;;70.50;27.90;;;;;;;1.99;100.00;101698.34;20782469;28;20050;-72
2022/01/16 15:35:16;;;;;;;71.70;27.90;;;;;;;2.09;100.00;101704.75;20781786;28;20056;-72
2022/01/16 15:45:17;;;;;;;;;;;;;;;2.13;100.00;101715.25;20781431;28;20103;-72
2022/01/16 15:55:19;;;;;;;65.47;25.55;;;;;;;2.03;100.00;101731.22;20772684;28;19925;-70
2022/01/16 16:05:23;;;;;;;58.25;24.27;;;;;;;2.15;100.00;101754.06;20778077;28;20045;-72
2022/01/16 16:15:25;;;;;;;57.92;23.27;;;;;;;2.21;99.16;101757.78;20777397;28;20057;-72
2022/01/16 16:25:28;;;;;;;63.20;24.15;;;;;;;2.21;98.71;101762.97;20778509;28;20049;-71
2022/01/16 16:35:30;;;;;;;49.83;21.05;;;;;;;2.42;96.21;101765.50;20777055;28;20123;-72
2022/01/16 16:45:31;;;;;;;58.03;23.05;;;;;;;2.41;96.40;101789.59;20774469;28;20046;-71
2022/01/16 16:55:33;;;;;;;54.20;26.25;;;;;;;2.34;98.45;101797.03;20774354;28;20050;-72
2022/01/16 17:05:36;;;;;;;46.45;20.90;;;;;;;2.35;97.62;101798.78;20774204;28;20046;-71
2022/01/16 17:15:37;;;;;;;39.42;18.25;;;;;;;2.46;96.86;101802.72;20766893;28;20557;-71
2022/01/16 17:25:39;;;;;;;43.75;21.27;;;;;;;2.53;95.84;101815.03;20773552;28;20081;-71
2022/01/16 17:35:41;;;;;;;50.13;21.20;;;;;;;2.41;97.61;101814.56;20770546;28;20893;-71
2022/01/16 17:45:43;;;;;;;51.90;22.17;;;;;;;2.45;97.76;101832.84;20773431;28;20470;-71
2022/01/16 17:55:45;;;;;;;53.55;23.52;;;;;;;2.41;98.61;101819.75;20770911;28;20497;-71
2022/01/16 18:05:46;;;;;;;56.58;23.77;;;;;;;2.45;97.95;101824.22;20769882;28;20140;-71
2022/01/16 18:15:48;;;;;;;56.00;24.85;;;;;;;2.41;98.73;101840.41;20770013;28;20057;-71
2022/01/16 18:25:50;;;;;;;51.00;21.95;;;;;;;2.42;98.53;101842.16;20765136;28;20140;-71
2022/01/16 18:35:53;;;;;;;59.70;25.35;;;;;;;2.49;97.89;101865.75;20766772;28;20053;-71
2022/01/16 18:45:57;;;;;;;60.15;26.17;;;;;;;2.40;98.67;101864.50;20766803;28;20450;-71
2022/01/16 18:55:59;;;;;;;56.20;25.10;;;;;;;2.39;98.71;101878.22;20767158;28;20054;-71
2022/01/16 19:06:01;;;;;;;55.50;24.80;;;;;;;2.36;99.91;101873.81;20766091;28;20868;-71
2022/01/16 19:16:03;;;;;;;61.67;25.33;;;;;;;2.42;99.90;101889.59;20766976;28;20053;-72
2022/01/16 19:26:06;;;;;;;54.50;24.38;;;;;;;2.44;99.48;101892.22;20767876;28;20050;-71
2022/01/16 19:36:08;;;;;;;54.42;23.67;;;;;;;2.32;100.00;101895.19;20765985;28;20053;-71
2022/01/16 19:46:10;;;;;;;56.55;25.63;;;;;;;2.37;100.00;101911.78;20764921;28;20457;-71
2022/01/16 19:56:13;;;;;;;64.68;26.90;;;;;;;2.35;100.00;101926.34;20774867;28;20903;-71
2022/01/16 20:06:14;;;;;;;71.32;32.67;;;;;;;2.45;100.00;101925.03;20778314;28;20103;-71
2022/01/16 20:16:16;;;;;;;53.00;24.42;;;;;;;2.32;100.00;101928.78;20776792;28;20115;-71
2022/01/16 20:26:20;;;;;;;59.08;26.73;;;;;;;2.35;100.00;101946.13;20776582;28;20045;-71
2022/01/16 20:36:21;;;;;;;64.50;26.67;;;;;;;2.29;100.00;101942.44;20761883;28;20119;-71
2022/01/16 20:46:23;;;;;;;63.10;26.98;;;;;;;2.30;100.00;101959.75;20773349;28;20517;-70
2022/01/16 20:56:25;;;;;;;63.47;25.55;;;;;;;2.42;100.00;101938.69;20774188;28;20056;-70
2022/01/16 21:06:26;;;;;;;55.92;23.95;;;;;;;2.31;100.00;101948.59;20772311;28;20038;-71
2022/01/16 21:16:28;;;;;;;48.60;21.35;;;;;;;2.45;100.00;101971.56;20771529;28;20104;-70
2022/01/16 21:26:32;;;;;;;40.15;18.25;;;;;;;2.57;99.66;101974.66;20772354;28;20096;-70
2022/01/16 21:36:34;;;;;;;36.93;18.00;;;;;;;2.63;97.04;101982.66;20770479;28;20407;-70
2022/01/16 21:46:35;;;;;;;40.90;18.92;;;;;;;2.65;96.19;101974.97;20770402;28;20041;-71
2022/01/16 21:56:37;;;;;;;45.17;20.80;;;;;;;2.55;96.06;101947.84;20769142;28;20058;-71
2022/01/16 22:06:38;;;;;;;46.88;20.92;;;;;;;2.47;96.98;101938.88;20767293;28;20473;-71
2022/01/16 22:16:40;;;;;;;51.20;21.90;;;;;;;2.38;97.48;101925.56;20767634;28;20045;-71
2022/01/16 22:26:42;;;;;;;56.65;22.85;;;;;;;2.34;97.25;101944.34;20769611;28;20053;-72
2022/01/16 22:36:43;;;;;;;55.88;24.05;;;;;;;2.22;97.22;101965.41;20768262;28;20045;-72
2022/01/16 22:46:46;;;;;;;58.92;24.92;;;;;;;2.18;97.66;101959.22;20767688;28;20073;-71
2022/01/16 22:56:48;;;;;;;57.67;24.65;;;;;;;2.10;98.14;101996.72;20765944;28;20057;-72
2022/01/16 23:06:49;;;;;;;60.08;24.63;;;;;;;2.18;97.78;102039.31;20768495;28;20046;-72
2022/01/16 23:16:52;;;;;;;60.28;25.48;;;;;;;2.04;98.90;102024.88;20773887;28;20058;-72
2022/01/16 23:26:54;;;;;;;58.53;25.38;;;;;;;2.01;99.43;102076.41;20775839;28;20526;-71
2022/01/16 23:36:56;;;;;;;59.63;25.63;;;;;;;2.08;98.96;102077.59;20791081;28;20099;-71
2022/01/16 23:46:57;;;;;;;63.63;27.30;;;;;;;2.10;98.51;102092.34;20787241;28;20042;-71
2022/01/16 23:56:59;;;;;;;64.20;27.23;;;;;;;2.07;99.53;102086.16;20788422;28;20054;-72
